Time;durP1;ratioP1;P1;durP2;ratioP2;P2;SDS_P1;SDS_P2;PMS_P1;PMS_P2;Temp;Humidity;BMP_temperature;BMP_pressure;BME280_temperature;BME280_humidity;BME280_pressure;Samples;Min_cycle;Max_cycle;Signal;HPM_P1;HPM_P2
2022/03/12 00:00:13;;;;;;;;;;;;;;;;;;1044000;28;1089;-28
2022/03/12 00:00:43;;;;;;;;;;;;;;;;;;1044449;28;981;-27
2022/03/12 00:01:14;;;;;;;;;;;;;;;;;;1043838;28;917;-33
2022/03/12 00:01:45;;;;;;;;;;;;;;;;;;1044204;28;1902;-27
2022/03/12 00:02:15;;;;;;;;;;;;;;;;;;1044020;28;783;-31
2022/03/12 00:02:46;;;;;;;;;;;;;;;;;;1043506;28;897;-31
2022/03/12 00:03:17;;;;;;;;;;;;;;;;;;1043913;28;1036;-29
2022/03/12 00:03:47;;;;;;;;;;;;;;;;;;1044207;28;792;-31
2022/03/12 00:04:18;;;;;;;;;;;;;;;;;;1043571;28;1576;-32
2022/03/12 00:04:49;;;;;;;;;;;;;;;;;;1043683;28;835;-29
2022/03/12 00:05:19;;;;;;;;;;;;;;;;;;1043771;28;964;-32
2022/03/12 00:05:54;;;;;;;;;;;;;;;;;;1044246;28;972;-30
2022/03/12 00:06:25;;;;;;;;;;;;;;;;;;1044196;28;838;-29
2022/03/12 00:06:55;;;;;;;;;;;;;;;;;;1043434;28;866;-34
2022/03/12 00:07:30;;;;;;;;;;;;;;;;;;1039747;28;958;-33
2022/03/12 00:08:05;;;;;;;;;;;;;;;;;;1038622;28;878;-34
2022/03/12 00:08:44;;;;;;;;;;;;;;;;;;992145;28;1259;-31
2022/03/12 00:09:14;;;;;;;;;;;;;;;;;;166392;28;10000683;-31
2022/03/12 00:10:04;;;;;;;;;;;;;;;;;;612750;28;10000477;-30
2022/03/12 00:10:34;;;;;;;;;;;;;;;;;;6;1526;10001154;-32
2022/03/12 00:11:05;;;;;;;;;;;;;;;;;;920721;28;3920;-36
2022/03/12 00:11:49;;;;;;;;;;;;;;;;;;927702;28;3648;-32
2022/03/12 00:12:20;;;;;;;;;;;;;;;;;;921097;28;3013;-30
2022/03/12 00:12:53;;;;;;;;;;;;;;;;;;932671;28;2776;-32
2022/03/12 00:13:24;;;;;;;;;;;;;;;;;;919079;28;2882;-31
2022/03/12 00:13:59;;;;;;;;;;;;;;;;;;946548;28;5300;-30
2022/03/12 00:14:33;;;;;;;;;;;;;;;;;;939673;28;2619;-31
2022/03/12 00:15:10;;;;;;;;;;;;;;;;;;932949;28;2693;-30
2022/03/12 00:15:41;;;;;;;;;;;;;;;;;;951146;28;3531;-35
2022/03/12 00:16:16;;;;;;;;;;;;;;;;;;944883;28;4247;-29
2022/03/12 00:16:48;;;;;;;;;;;;;;;;;;939678;28;2592;-30
2022/03/12 00:17:22;;;;;;;;;;;;;;;;;;917760;28;3255;-36
2022/03/12 00:17:53;;;;;;;;;;;;;;;;;;912441;28;2584;-33
2022/03/12 00:18:29;;;;;;;;;;;;;;;;;;910417;28;2594;-33
2022/03/12 00:19:02;;;;;;;;;;;;;;;;;;997357;28;2524;-28
2022/03/12 00:19:40;;;;;;;;;;;;;;;;;;1037111;28;874;-30
2022/03/12 00:20:12;;;;;;;;;;;;;;;;;;1039561;28;897;-28
2022/03/12 00:20:44;;;;;;;;;;;;;;;;;;1040311;28;1301;-31
2022/03/12 00:21:15;;;;;;;;;;;;;;;;;;1043922;28;854;-31
2022/03/12 00:21:47;;;;;;;;;;;;;;;;;;1042718;28;1981;-34
2022/03/12 00:22:17;;;;;;;;;;;;;;;;;;1043854;28;954;-31
2022/03/12 00:22:50;;;;;;;;;;;;;;;;;;1043262;28;834;-32
2022/03/12 00:23:21;;;;;;;;;;;;;;;;;;1042848;28;866;-31
2022/03/12 00:23:55;;;;;;;;;;;;;;;;;;1043046;28;1351;-30
2022/03/12 00:24:26;;;;;;;;;;;;;;;;;;1043405;28;949;-29
2022/03/12 00:24:57;;;;;;;;;;;;;;;;;;1042450;28;1281;-33
2022/03/12 00:25:28;;;;;;;;;;;;;;;;;;1037272;28;927;-29
2022/03/12 00:26:00;;;;;;;;;;;;;;;;;;1039445;28;1201;-28
2022/03/12 00:26:31;;;;;;;;;;;;;;;;;;1045480;28;1613;-30
2022/03/12 00:27:01;;;;;;;;;;;;;;;;;;1048100;28;938;-33
2022/03/12 00:27:32;;;;;;;;;;;;;;;;;;1048037;28;800;-28
2022/03/12 00:28:03;;;;;;;;;;;;;;;;;;1047975;28;893;-28
2022/03/12 00:28:33;;;;;;;;;;;;;;;;;;1047969;28;854;-28
2022/03/12 00:29:04;;;;;;;;;;;;;;;;;;1047835;28;909;-31
2022/03/12 00:29:35;;;;;;;;;;;;;;;;;;1047878;28;913;-32
2022/03/12 00:30:06;;;;;;;;;;;;;;;;;;1048301;28;924;-33
2022/03/12 00:30:38;;;;;;;;;;;;;;;;;;1047890;28;1028;-34
2022/03/12 00:31:09;;;;;;;;;;;;;;;;;;1048083;28;972;-31
2022/03/12 00:31:40;;;;;;;;;;;;;;;;;;1048110;28;1024;-29
2022/03/12 00:32:14;;;;;;;;;;;;;;;;;;1047999;28;894;-31
2022/03/12 00:32:46;;;;;;;;;;;;;;;;;;1048170;28;961;-29
2022/03/12 00:33:20;;;;;;;;;;;;;;;;;;1047986;28;933;-31
2022/03/12 00:33:51;;;;;;;;;;;;;;;;;;1048220;28;898;-30
2022/03/12 00:34:21;;;;;;;;;;;;;;;;;;1048036;28;779;-30
2022/03/12 00:34:53;;;;;;;;;;;;;;;;;;1048009;28;842;-30
2022/03/12 00:35:23;;;;;;;;;;;;;;;;;;1048057;28;822;-28
2022/03/12 00:35:54;;;;;;;;;;;;;;;;;;1048148;28;869;-29
2022/03/12 00:36:24;;;;;;;;;;;;;;;;;;1047752;28;1000;-32
2022/03/12 00:36:54;;;;;;;;;;;;;;;;;;1047659;28;901;-29
2022/03/12 00:37:25;;;;;;;;;;;;;;;;;;1048002;28;798;-29
2022/03/12 00:37:57;;;;;;;;;;;;;;;;;;1047927;28;850;-31
2022/03/12 00:38:28;;;;;;;;;;;;;;;;;;1048092;28;937;-31
2022/03/12 00:38:59;;;;;;;;;;;;;;;;;;1047921;28;870;-29
2022/03/12 00:39:29;;;;;;;;;;;;;;;;;;1048023;28;1004;-31
2022/03/12 00:40:00;;;;;;;;;;;;;;;;;;1048020;28;799;-33
2022/03/12 00:40:30;;;;;;;;;;;;;;;;;;1048076;28;948;-30
2022/03/12 00:41:05;;;;;;;;;;;;;;;;;;1048090;28;953;-29
2022/03/12 00:41:36;;;;;;;;;;;;;;;;;;1045521;28;1914;-28
2022/03/12 00:42:06;;;;;;;;;;;;;;;;;;1044055;28;905;-32
2022/03/12 00:42:37;;;;;;;;;;;;;;;;;;1043845;28;1048;-29
2022/03/12 00:43:08;;;;;;;;;;;;;;;;;;1043899;28;934;-31
2022/03/12 00:43:38;;;;;;;;;;;;;;;;;;1043832;28;822;-32
2022/03/12 00:44:09;;;;;;;;;;;;;;;;;;1043415;28;933;-32
2022/03/12 00:44:40;;;;;;;;;;;;;;;;;;1043844;28;1037;-29
2022/03/12 00:45:10;;;;;;;;;;;;;;;;;;1043942;28;850;-32
2022/03/12 00:45:41;;;;;;;;;;;;;;;;;;1043732;28;899;-29
2022/03/12 00:46:12;;;;;;;;;;;;;;;;;;1043951;28;830;-31
2022/03/12 00:46:42;;;;;;;;;;;;;;;;;;1043415;28;1050;-26
2022/03/12 00:47:13;;;;;;;;;;;;;;;;;;1043950;28;960;-28
2022/03/12 00:47:44;;;;;;;;;;;;;;;;;;1043713;28;763;-29
2022/03/12 00:48:14;;;;;;;;;;;;;;;;;;1043315;28;926;-33
2022/03/12 00:48:45;;;;;;;;;;;;;;;;;;1044006;28;929;-29
2022/03/12 00:49:15;;;;;;;;;;;;;;;;;;1043785;28;795;-30
2022/03/12 00:49:46;;;;;;;;;;;;;;;;;;1043937;28;958;-30
2022/03/12 00:50:16;;;;;;;;;;;;;;;;;;1043745;28;994;-30
2022/03/12 00:50:48;;;;;;;;;;;;;;;;;;1043850;28;834;-30
2022/03/12 00:51:18;;;;;;;;;;;;;;;;;;1043284;28;912;-31
2022/03/12 00:51:48;;;;;;;;;;;;;;;;;;1043903;28;878;-31
2022/03/12 00:52:19;;;;;;;;;;;;;;;;;;1043819;28;877;-31
2022/03/12 00:52:50;;;;;;;;;;;;;;;;;;1043910;28;946;-32
2022/03/12 00:53:20;;;;;;;;;;;;;;;;;;1039163;28;946;-30
2022/03/12 00:53:51;;;;;;;;;;;;;;;;;;1039536;28;922;-32
2022/03/12 00:54:21;;;;;;;;;;;;;;;;;;1040576;28;922;-28
2022/03/12 00:54:51;;;;;;;;;;;;;;;;;;1043552;28;829;-26
2022/03/12 00:55:22;;;;;;;;;;;;;;;;;;1043774;28;1275;-33
2022/03/12 00:55:52;;;;;;;;;;;;;;;;;;1043856;28;929;-33
2022/03/12 00:56:24;;;;;;;;;;;;;;;;;;1043984;28;843;-29
2022/03/12 00:56:55;;;;;;;;;;;;;;;;;;1043839;28;938;-30
2022/03/12 00:57:25;;;;;;;;;;;;;;;;;;1043869;28;968;-26
2022/03/12 00:57:56;;;;;;;;;;;;;;;;;;1043675;28;977;-28
2022/03/12 00:58:26;;;;;;;;;;;;;;;;;;1043692;28;1570;-30
2022/03/12 00:58:58;;;;;;;;;;;;;;;;;;1043308;28;818;-29
2022/03/12 00:59:28;;;;;;;;;;;;;;;;;;1044036;28;803;-29
2022/03/12 00:59:58;;;;;;;;;;;;;;;;;;1043625;28;1001;-31
2022/03/12 01:00:29;;;;;;;;;;;;;;;;;;1043897;28;1016;-30
2022/03/12 01:00:59;;;;;;;;;;;;;;;;;;1043660;28;854;-27
2022/03/12 01:01:30;;;;;;;;;;;;;;;;;;1043631;28;1906;-29
2022/03/12 01:02:00;;;;;;;;;;;;;;;;;;1043863;28;819;-30
2022/03/12 01:02:30;;;;;;;;;;;;;;;;;;1043713;28;847;-31
2022/03/12 01:03:01;;;;;;;;;;;;;;;;;;1043793;28;977;-28
2022/03/12 01:03:31;;;;;;;;;;;;;;;;;;1043883;28;1041;-29
2022/03/12 01:04:02;;;;;;;;;;;;;;;;;;1043791;28;827;-29
2022/03/12 01:04:33;;;;;;;;;;;;;;;;;;1043890;28;942;-33
2022/03/12 01:05:03;;;;;;;;;;;;;;;;;;1043814;28;835;-32
2022/03/12 01:05:40;;;;;;;;;;;;;;;;;;1043828;28;874;-31
2022/03/12 01:06:12;;;;;;;;;;;;;;;;;;1043303;28;949;-26
2022/03/12 01:06:43;;;;;;;;;;;;;;;;;;1043687;28;1547;-31
2022/03/12 01:07:13;;;;;;;;;;;;;;;;;;1043826;28;787;-34
2022/03/12 01:07:44;;;;;;;;;;;;;;;;;;1043646;28;1062;-29
2022/03/12 01:08:15;;;;;;;;;;;;;;;;;;1043858;28;794;-29
2022/03/12 01:08:46;;;;;;;;;;;;;;;;;;1043847;28;950;-30
2022/03/12 01:09:16;;;;;;;;;;;;;;;;;;1043707;28;803;-31
2022/03/12 01:09:47;;;;;;;;;;;;;;;;;;1043968;28;930;-31
2022/03/12 01:10:17;;;;;;;;;;;;;;;;;;1043774;28;823;-29
2022/03/12 01:10:48;;;;;;;;;;;;;;;;;;1043830;28;791;-30
2022/03/12 01:11:18;;;;;;;;;;;;;;;;;;1043800;28;953;-28
2022/03/12 01:11:49;;;;;;;;;;;;;;;;;;1043747;28;890;-31
2022/03/12 01:12:19;;;;;;;;;;;;;;;;;;1043854;28;865;-31
2022/03/12 01:12:49;;;;;;;;;;;;;;;;;;1043853;28;870;-29
2022/03/12 01:13:21;;;;;;;;;;;;;;;;;;1043653;28;1018;-28
2022/03/12 01:13:51;;;;;;;;;;;;;;;;;;1043319;28;1140;-30
2022/03/12 01:14:22;;;;;;;;;;;;;;;;;;1043732;28;798;-31
2022/03/12 01:14:52;;;;;;;;;;;;;;;;;;1043747;28;882;-33
2022/03/12 01:15:22;;;;;;;;;;;;;;;;;;1043766;28;796;-29
2022/03/12 01:15:54;;;;;;;;;;;;;;;;;;1043726;28;882;-33
2022/03/12 01:16:24;;;;;;;;;;;;;;;;;;1043915;28;895;-33
2022/03/12 01:16:58;;;;;;;;;;;;;;;;;;1043703;28;990;-31
2022/03/12 01:17:31;;;;;;;;;;;;;;;;;;1043697;28;1021;-28
2022/03/12 01:18:01;;;;;;;;;;;;;;;;;;1043702;28;984;-31
2022/03/12 01:18:35;;;;;;;;;;;;;;;;;;1043675;28;1068;-30
2022/03/12 01:19:06;;;;;;;;;;;;;;;;;;1043790;28;870;-29
2022/03/12 01:19:39;;;;;;;;;;;;;;;;;;1043673;28;783;-28
2022/03/12 01:20:10;;;;;;;;;;;;;;;;;;1043836;28;869;-27
2022/03/12 01:20:41;;;;;;;;;;;;;;;;;;1043755;28;926;-28
2022/03/12 01:21:16;;;;;;;;;;;;;;;;;;1043122;28;990;-33
2022/03/12 01:21:47;;;;;;;;;;;;;;;;;;1043735;28;1962;-30
2022/03/12 01:22:20;;;;;;;;;;;;;;;;;;1043805;28;890;-29
2022/03/12 01:22:51;;;;;;;;;;;;;;;;;;1043738;28;942;-32
2022/03/12 01:23:24;;;;;;;;;;;;;;;;;;1043713;28;870;-30
2022/03/12 01:23:54;;;;;;;;;;;;;;;;;;1043618;28;886;-29
2022/03/12 01:24:25;;;;;;;;;;;;;;;;;;1043857;28;902;-30
2022/03/12 01:24:55;;;;;;;;;;;;;;;;;;1043648;28;1009;-26
2022/03/12 01:25:26;;;;;;;;;;;;;;;;;;1040266;28;1282;-31
2022/03/12 01:25:56;;;;;;;;;;;;;;;;;;1039666;28;949;-27
2022/03/12 01:26:27;;;;;;;;;;;;;;;;;;1039649;28;775;-27
2022/03/12 01:26:57;;;;;;;;;;;;;;;;;;1039682;28;846;-29
2022/03/12 01:27:27;;;;;;;;;;;;;;;;;;1039706;28;796;-33
2022/03/12 01:27:57;;;;;;;;;;;;;;;;;;1039393;28;917;-31
2022/03/12 01:28:28;;;;;;;;;;;;;;;;;;1039115;28;839;-29
2022/03/12 01:28:58;;;;;;;;;;;;;;;;;;1039570;28;1019;-29
2022/03/12 01:29:29;;;;;;;;;;;;;;;;;;1039645;28;858;-27
2022/03/12 01:29:59;;;;;;;;;;;;;;;;;;1039673;28;980;-33
2022/03/12 01:30:32;;;;;;;;;;;;;;;;;;1039430;28;803;-32
2022/03/12 01:31:03;;;;;;;;;;;;;;;;;;1039800;28;1593;-30
2022/03/12 01:31:34;;;;;;;;;;;;;;;;;;1039436;28;897;-26
2022/03/12 01:32:05;;;;;;;;;;;;;;;;;;1039729;28;799;-30
2022/03/12 01:32:35;;;;;;;;;;;;;;;;;;1039596;28;1738;-31
2022/03/12 01:33:06;;;;;;;;;;;;;;;;;;1039671;28;941;-33
2022/03/12 01:33:36;;;;;;;;;;;;;;;;;;1039528;28;950;-31
2022/03/12 01:34:06;;;;;;;;;;;;;;;;;;1039748;28;989;-30
2022/03/12 01:34:37;;;;;;;;;;;;;;;;;;1039475;28;882;-33
2022/03/12 01:35:08;;;;;;;;;;;;;;;;;;1039708;28;996;-29
2022/03/12 01:35:38;;;;;;;;;;;;;;;;;;1039093;28;771;-29
2022/03/12 01:36:08;;;;;;;;;;;;;;;;;;1039598;28;885;-33
2022/03/12 01:36:41;;;;;;;;;;;;;;;;;;1039563;28;925;-29
2022/03/12 01:37:14;;;;;;;;;;;;;;;;;;1039700;28;886;-27
2022/03/12 01:37:45;;;;;;;;;;;;;;;;;;1039446;28;877;-29
2022/03/12 01:38:15;;;;;;;;;;;;;;;;;;1039636;28;886;-29
2022/03/12 01:38:48;;;;;;;;;;;;;;;;;;1039681;28;827;-31
2022/03/12 01:39:19;;;;;;;;;;;;;;;;;;1039582;28;850;-32
2022/03/12 01:39:49;;;;;;;;;;;;;;;;;;1039503;28;930;-27
2022/03/12 01:40:20;;;;;;;;;;;;;;;;;;1035302;28;982;-28
2022/03/12 01:40:52;;;;;;;;;;;;;;;;;;1035166;28;886;-29
2022/03/12 01:41:23;;;;;;;;;;;;;;;;;;1035254;28;846;-26
2022/03/12 01:41:54;;;;;;;;;;;;;;;;;;1041110;28;1985;-33
2022/03/12 01:42:27;;;;;;;;;;;;;;;;;;1043652;28;953;-29
2022/03/12 01:42:58;;;;;;;;;;;;;;;;;;1043543;28;1009;-32
2022/03/12 01:43:32;;;;;;;;;;;;;;;;;;1043181;28;922;-30
2022/03/12 01:44:02;;;;;;;;;;;;;;;;;;1043658;28;949;-32
2022/03/12 01:44:33;;;;;;;;;;;;;;;;;;1043755;28;1024;-29
2022/03/12 01:45:07;;;;;;;;;;;;;;;;;;1043624;28;906;-29
2022/03/12 01:45:38;;;;;;;;;;;;;;;;;;1043705;28;950;-29
2022/03/12 01:46:09;;;;;;;;;;;;;;;;;;1043682;28;905;-31
2022/03/12 01:46:42;;;;;;;;;;;;;;;;;;1043428;28;1202;-33
2022/03/12 01:47:15;;;;;;;;;;;;;;;;;;1043788;28;861;-29
2022/03/12 01:47:47;;;;;;;;;;;;;;;;;;1043362;28;1144;-27
2022/03/12 01:48:18;;;;;;;;;;;;;;;;;;1043670;28;969;-31
2022/03/12 01:48:49;;;;;;;;;;;;;;;;;;1043616;28;791;-33
2022/03/12 01:49:23;;;;;;;;;;;;;;;;;;1043769;28;834;-28
2022/03/12 01:49:54;;;;;;;;;;;;;;;;;;1043630;28;854;-31
2022/03/12 01:50:25;;;;;;;;;;;;;;;;;;1043454;28;922;-30
2022/03/12 01:50:56;;;;;;;;;;;;;;;;;;1043200;28;1017;-29
2022/03/12 01:51:27;;;;;;;;;;;;;;;;;;1043720;28;823;-28
2022/03/12 01:51:57;;;;;;;;;;;;;;;;;;1043597;28;862;-28
2022/03/12 01:52:29;;;;;;;;;;;;;;;;;;1043856;28;783;-26
2022/03/12 01:53:02;;;;;;;;;;;;;;;;;;1043470;28;1008;-27
2022/03/12 01:53:32;;;;;;;;;;;;;;;;;;1043757;28;957;-28
2022/03/12 01:54:03;;;;;;;;;;;;;;;;;;1043589;28;827;-28
2022/03/12 01:54:34;;;;;;;;;;;;;;;;;;1043716;28;945;-31
2022/03/12 01:55:05;;;;;;;;;;;;;;;;;;1043453;28;1240;-31
2022/03/12 01:55:39;;;;;;;;;;;;;;;;;;1043600;28;970;-28
2022/03/12 01:56:09;;;;;;;;;;;;;;;;;;1043665;28;831;-29
2022/03/12 01:56:40;;;;;;;;;;;;;;;;;;1043728;28;968;-29
2022/03/12 01:57:11;;;;;;;;;;;;;;;;;;1043550;28;996;-30
2022/03/12 01:57:42;;;;;;;;;;;;;;;;;;1043464;28;830;-30
2022/03/12 01:58:12;;;;;;;;;;;;;;;;;;1042511;28;818;-27
2022/03/12 01:58:44;;;;;;;;;;;;;;;;;;1043486;28;997;-29
2022/03/12 01:59:16;;;;;;;;;;;;;;;;;;1039123;28;941;-30
2022/03/12 01:59:46;;;;;;;;;;;;;;;;;;1039252;28;776;-33
2022/03/12 02:00:24;;;;;;;;;;;;;;;;;;1039292;28;933;-26
2022/03/12 02:00:57;;;;;;;;;;;;;;;;;;1040062;28;890;-29
2022/03/12 02:01:29;;;;;;;;;;;;;;;;;;1039093;28;1918;-29
2022/03/12 02:01:59;;;;;;;;;;;;;;;;;;1039236;28;823;-28
2022/03/12 02:02:30;;;;;;;;;;;;;;;;;;1039160;28;921;-28
2022/03/12 02:03:00;;;;;;;;;;;;;;;;;;1039381;28;977;-29
2022/03/12 02:03:32;;;;;;;;;;;;;;;;;;1043668;28;822;-30
2022/03/12 02:04:04;;;;;;;;;;;;;;;;;;1043606;28;898;-31
2022/03/12 02:04:36;;;;;;;;;;;;;;;;;;1043832;28;866;-33
2022/03/12 02:05:07;;;;;;;;;;;;;;;;;;1043362;28;795;-28
2022/03/12 02:05:38;;;;;;;;;;;;;;;;;;1043278;28;941;-31
2022/03/12 02:06:08;;;;;;;;;;;;;;;;;;1043546;28;938;-28
2022/03/12 02:06:43;;;;;;;;;;;;;;;;;;1043677;28;1032;-29
2022/03/12 02:07:14;;;;;;;;;;;;;;;;;;1043532;28;814;-31
2022/03/12 02:07:44;;;;;;;;;;;;;;;;;;1043568;28;938;-29
2022/03/12 02:08:16;;;;;;;;;;;;;;;;;;1043513;28;1018;-29
2022/03/12 02:08:58;;;;;;;;;;;;;;;;;;1043620;28;966;-32
2022/03/12 02:09:29;;;;;;;;;;;;;;;;;;1043506;28;883;-31
2022/03/12 02:09:59;;;;;;;;;;;;;;;;;;1043780;28;842;-27
2022/03/12 02:10:31;;;;;;;;;;;;;;;;;;1043503;28;1005;-33
2022/03/12 02:11:02;;;;;;;;;;;;;;;;;;1043809;28;783;-29
2022/03/12 02:11:38;;;;;;;;;;;;;;;;;;1043479;28;804;-31
2022/03/12 02:12:08;;;;;;;;;;;;;;;;;;1043578;28;948;-29
2022/03/12 02:12:39;;;;;;;;;;;;;;;;;;1043306;28;914;-30
2022/03/12 02:13:10;;;;;;;;;;;;;;;;;;1043396;28;843;-28
2022/03/12 02:13:40;;;;;;;;;;;;;;;;;;1044480;28;891;-27
2022/03/12 02:14:15;;;;;;;;;;;;;;;;;;1044539;28;803;-27
2022/03/12 02:14:45;;;;;;;;;;;;;;;;;;1044399;28;962;-29
2022/03/12 02:15:22;;;;;;;;;;;;;;;;;;1044525;28;870;-30
2022/03/12 02:16:07;;;;;;;;;;;;;;;;;;1044436;28;1006;-28
2022/03/12 02:16:37;;;;;;;;;;;;;;;;;;1044558;28;898;-31
2022/03/12 02:17:09;;;;;;;;;;;;;;;;;;1044451;28;806;-27
2022/03/12 02:17:39;;;;;;;;;;;;;;;;;;1044530;28;906;-32
2022/03/12 02:18:12;;;;;;;;;;;;;;;;;;1044371;28;850;-33
2022/03/12 02:18:45;;;;;;;;;;;;;;;;;;1044459;28;791;-30
2022/03/12 02:19:17;;;;;;;;;;;;;;;;;;1044577;28;795;-28
2022/03/12 02:19:47;;;;;;;;;;;;;;;;;;1044492;28;858;-29
2022/03/12 02:20:20;;;;;;;;;;;;;;;;;;1043804;28;985;-31
2022/03/12 02:20:50;;;;;;;;;;;;;;;;;;1044586;28;834;-29
2022/03/12 02:21:42;;;;;;;;;;;;;;;;;;1039959;28;890;-27
2022/03/12 02:22:14;;;;;;;;;;;;;;;;;;1039969;28;795;-31
2022/03/12 02:22:45;;;;;;;;;;;;;;;;;;1039928;28;1048;-28
2022/03/12 02:23:16;;;;;;;;;;;;;;;;;;1043655;28;934;-28
2022/03/12 02:23:49;;;;;;;;;;;;;;;;;;1044496;28;965;-31
2022/03/12 02:24:21;;;;;;;;;;;;;;;;;;1044410;28;870;-28
2022/03/12 02:24:53;;;;;;;;;;;;;;;;;;1044538;28;516;-31
2022/03/12 02:25:28;;;;;;;;;;;;;;;;;;1044279;28;1228;-29
2022/03/12 02:26:02;;;;;;;;;;;;;;;;;;1044568;28;850;-30
2022/03/12 02:26:33;;;;;;;;;;;;;;;;;;1044374;28;866;-26
2022/03/12 02:27:08;;;;;;;;;;;;;;;;;;1044371;28;843;-27
2022/03/12 02:27:38;;;;;;;;;;;;;;;;;;1043960;28;947;-31
2022/03/12 02:28:17;;;;;;;;;;;;;;;;;;1044092;28;961;-29
2022/03/12 02:28:48;;;;;;;;;;;;;;;;;;1044502;28;870;-29
2022/03/12 02:29:22;;;;;;;;;;;;;;;;;;1044451;28;835;-33
2022/03/12 02:29:53;;;;;;;;;;;;;;;;;;1044451;28;961;-31
2022/03/12 02:30:24;;;;;;;;;;;;;;;;;;1044390;28;910;-31
2022/03/12 02:30:55;;;;;;;;;;;;;;;;;;1044340;28;886;-29
2022/03/12 02:31:27;;;;;;;;;;;;;;;;;;1044334;28;823;-30
2022/03/12 02:32:01;;;;;;;;;;;;;;;;;;1044543;28;938;-29
2022/03/12 02:32:31;;;;;;;;;;;;;;;;;;1044209;28;1612;-32
2022/03/12 02:33:02;;;;;;;;;;;;;;;;;;1044611;28;977;-27
2022/03/12 02:33:33;;;;;;;;;;;;;;;;;;1044266;28;933;-32
2022/03/12 02:34:04;;;;;;;;;;;;;;;;;;1044633;28;898;-31
2022/03/12 02:34:50;;;;;;;;;;;;;;;;;;1044266;28;933;-30
2022/03/12 02:35:24;;;;;;;;;;;;;;;;;;1044244;28;812;-28
2022/03/12 02:35:55;;;;;;;;;;;;;;;;;;1044371;28;929;-28
2022/03/12 02:36:27;;;;;;;;;;;;;;;;;;1044347;28;921;-30
2022/03/12 02:36:57;;;;;;;;;;;;;;;;;;1044406;28;1001;-26
2022/03/12 02:37:33;;;;;;;;;;;;;;;;;;1044413;28;969;-31
2022/03/12 02:38:04;;;;;;;;;;;;;;;;;;1044264;28;937;-28
2022/03/12 02:38:35;;;;;;;;;;;;;;;;;;1044435;28;883;-32
2022/03/12 02:39:06;;;;;;;;;;;;;;;;;;1044225;28;1248;-27
2022/03/12 02:39:38;;;;;;;;;;;;;;;;;;1044423;28;1408;-27
2022/03/12 02:40:11;;;;;;;;;;;;;;;;;;1044516;28;869;-30
2022/03/12 02:40:44;;;;;;;;;;;;;;;;;;1044301;28;822;-30
2022/03/12 02:41:15;;;;;;;;;;;;;;;;;;1044263;28;935;-29
2022/03/12 02:41:46;;;;;;;;;;;;;;;;;;1044271;28;1910;-31
2022/03/12 02:42:18;;;;;;;;;;;;;;;;;;1041812;28;1074;-31
2022/03/12 02:42:50;;;;;;;;;;;;;;;;;;1040269;28;921;-32
2022/03/12 02:43:26;;;;;;;;;;;;;;;;;;1040264;28;806;-31
2022/03/12 02:43:56;;;;;;;;;;;;;;;;;;1040356;28;1002;-30
2022/03/12 02:44:28;;;;;;;;;;;;;;;;;;1040229;28;930;-28
2022/03/12 02:44:59;;;;;;;;;;;;;;;;;;1040218;28;787;-27
2022/03/12 02:45:29;;;;;;;;;;;;;;;;;;1040237;28;907;-28
2022/03/12 02:46:01;;;;;;;;;;;;;;;;;;1040307;28;909;-30
2022/03/12 02:46:34;;;;;;;;;;;;;;;;;;1040081;28;1169;-29
2022/03/12 02:47:11;;;;;;;;;;;;;;;;;;1040250;28;851;-31
2022/03/12 02:47:43;;;;;;;;;;;;;;;;;;1040150;28;870;-33
2022/03/12 02:48:13;;;;;;;;;;;;;;;;;;1040285;28;935;-31
2022/03/12 02:48:48;;;;;;;;;;;;;;;;;;1040256;28;810;-31
2022/03/12 02:49:19;;;;;;;;;;;;;;;;;;1040301;28;894;-30
2022/03/12 02:49:51;;;;;;;;;;;;;;;;;;1039701;28;858;-32
2022/03/12 02:50:23;;;;;;;;;;;;;;;;;;1040216;28;957;-31
2022/03/12 02:50:53;;;;;;;;;;;;;;;;;;1040315;28;811;-33
2022/03/12 02:51:25;;;;;;;;;;;;;;;;;;1040249;28;954;-29
2022/03/12 02:51:56;;;;;;;;;;;;;;;;;;1040334;28;883;-29
2022/03/12 02:52:27;;;;;;;;;;;;;;;;;;1040300;28;855;-34
2022/03/12 02:52:57;;;;;;;;;;;;;;;;;;1040247;28;867;-28
2022/03/12 02:53:28;;;;;;;;;;;;;;;;;;1040228;28;855;-29
2022/03/12 02:53:58;;;;;;;;;;;;;;;;;;1040276;28;981;-29
2022/03/12 02:54:29;;;;;;;;;;;;;;;;;;1040200;28;847;-30
2022/03/12 02:55:00;;;;;;;;;;;;;;;;;;1040254;28;1288;-31
2022/03/12 02:55:34;;;;;;;;;;;;;;;;;;1040079;28;886;-32
2022/03/12 02:56:05;;;;;;;;;;;;;;;;;;1040153;28;988;-31
2022/03/12 02:56:35;;;;;;;;;;;;;;;;;;1040347;28;946;-29
2022/03/12 02:57:06;;;;;;;;;;;;;;;;;;1039550;28;1691;-31
2022/03/12 02:57:38;;;;;;;;;;;;;;;;;;1040209;28;966;-29
2022/03/12 02:58:13;;;;;;;;;;;;;;;;;;1040110;28;791;-32
2022/03/12 02:58:44;;;;;;;;;;;;;;;;;;1040152;28;878;-30
2022/03/12 02:59:14;;;;;;;;;;;;;;;;;;1040258;28;879;-31
2022/03/12 02:59:51;;;;;;;;;;;;;;;;;;1040185;28;913;-29
2022/03/12 03:00:22;;;;;;;;;;;;;;;;;;1040363;28;821;-28
2022/03/12 03:00:53;;;;;;;;;;;;;;;;;;1040050;28;942;-32
2022/03/12 03:01:26;;;;;;;;;;;;;;;;;;1040260;28;1017;-29
2022/03/12 03:02:00;;;;;;;;;;;;;;;;;;1040231;28;858;-29
2022/03/12 03:02:40;;;;;;;;;;;;;;;;;;1040141;28;846;-28
2022/03/12 03:03:12;;;;;;;;;;;;;;;;;;1040210;28;858;-30
2022/03/12 03:03:44;;;;;;;;;;;;;;;;;;1040139;28;902;-27
2022/03/12 03:04:14;;;;;;;;;;;;;;;;;;1040163;28;957;-31
2022/03/12 03:04:45;;;;;;;;;;;;;;;;;;1039489;28;937;-32
2022/03/12 03:06:01;;;;;;;;;;;;;;;;;;1040227;28;853;-31
2022/03/12 03:06:32;;;;;;;;;;;;;;;;;;1040110;28;958;-30
2022/03/12 03:07:03;;;;;;;;;;;;;;;;;;1040329;28;759;-29
2022/03/12 03:07:35;;;;;;;;;;;;;;;;;;1040041;28;883;-31
2022/03/12 03:08:07;;;;;;;;;;;;;;;;;;1040016;28;1715;-28
2022/03/12 03:08:39;;;;;;;;;;;;;;;;;;1040202;28;934;-30
2022/03/12 03:09:10;;;;;;;;;;;;;;;;;;1040161;28;953;-31
2022/03/12 03:09:40;;;;;;;;;;;;;;;;;;1040167;28;997;-32
2022/03/12 03:10:20;;;;;;;;;;;;;;;;;;1040051;28;874;-31
2022/03/12 03:10:51;;;;;;;;;;;;;;;;;;1040121;28;1491;-32
2022/03/12 03:11:27;;;;;;;;;;;;;;;;;;1040267;28;802;-32
2022/03/12 03:12:02;;;;;;;;;;;;;;;;;;1039679;28;782;-31
2022/03/12 03:12:34;;;;;;;;;;;;;;;;;;1040071;28;1131;-30
2022/03/12 03:13:16;;;;;;;;;;;;;;;;;;1040015;28;832;-30
2022/03/12 03:13:47;;;;;;;;;;;;;;;;;;1040246;28;945;-31
2022/03/12 03:14:19;;;;;;;;;;;;;;;;;;1040106;28;926;-29
2022/03/12 03:14:51;;;;;;;;;;;;;;;;;;1040203;28;784;-31
2022/03/12 03:15:21;;;;;;;;;;;;;;;;;;1040102;28;835;-29
2022/03/12 03:16:01;;;;;;;;;;;;;;;;;;1040104;28;926;-26
2022/03/12 03:16:31;;;;;;;;;;;;;;;;;;1040017;28;814;-30
2022/03/12 03:17:03;;;;;;;;;;;;;;;;;;1040241;28;862;-30
2022/03/12 03:17:35;;;;;;;;;;;;;;;;;;1040082;28;953;-26
2022/03/12 03:18:07;;;;;;;;;;;;;;;;;;1039980;28;807;-32
2022/03/12 03:18:39;;;;;;;;;;;;;;;;;;1040022;28;993;-28
2022/03/12 03:19:10;;;;;;;;;;;;;;;;;;1040240;28;783;-27
2022/03/12 03:19:40;;;;;;;;;;;;;;;;;;1039423;28;1076;-29
2022/03/12 03:20:12;;;;;;;;;;;;;;;;;;1040189;28;1052;-29
2022/03/12 03:20:42;;;;;;;;;;;;;;;;;;1040078;28;922;-31
2022/03/12 03:21:13;;;;;;;;;;;;;;;;;;1040094;28;874;-27
2022/03/12 03:21:44;;;;;;;;;;;;;;;;;;1040065;28;1914;-30
2022/03/12 03:22:14;;;;;;;;;;;;;;;;;;1040080;28;893;-30
2022/03/12 03:22:44;;;;;;;;;;;;;;;;;;1040065;28;958;-30
2022/03/12 03:23:15;;;;;;;;;;;;;;;;;;1040174;28;799;-30
2022/03/12 03:23:45;;;;;;;;;;;;;;;;;;1039922;28;965;-28
2022/03/12 03:24:15;;;;;;;;;;;;;;;;;;1040158;28;933;-32
2022/03/12 03:24:46;;;;;;;;;;;;;;;;;;1039985;28;798;-29
2022/03/12 03:25:16;;;;;;;;;;;;;;;;;;1040855;28;1120;-31
2022/03/12 03:25:47;;;;;;;;;;;;;;;;;;1044237;28;981;-32
2022/03/12 03:26:41;;;;;;;;;;;;;;;;;;1044248;28;937;-33
2022/03/12 03:27:11;;;;;;;;;;;;;;;;;;1044019;28;1194;-33
2022/03/12 03:27:41;;;;;;;;;;;;;;;;;;1044177;28;886;-29
2022/03/12 03:28:12;;;;;;;;;;;;;;;;;;1044191;28;866;-27
2022/03/12 03:28:42;;;;;;;;;;;;;;;;;;1044151;28;782;-26
2022/03/12 03:29:13;;;;;;;;;;;;;;;;;;1044259;28;842;-29
2022/03/12 03:29:45;;;;;;;;;;;;;;;;;;1044215;28;799;-29
2022/03/12 03:30:16;;;;;;;;;;;;;;;;;;1044351;28;988;-31
2022/03/12 03:30:46;;;;;;;;;;;;;;;;;;1044241;28;854;-32
2022/03/12 03:31:18;;;;;;;;;;;;;;;;;;1044255;28;1646;-29
2022/03/12 03:31:49;;;;;;;;;;;;;;;;;;1044107;28;961;-30
2022/03/12 03:32:19;;;;;;;;;;;;;;;;;;1044411;28;917;-30
2022/03/12 03:32:50;;;;;;;;;;;;;;;;;;1044008;28;1625;-26
2022/03/12 03:33:21;;;;;;;;;;;;;;;;;;1044367;28;767;-29
2022/03/12 03:33:51;;;;;;;;;;;;;;;;;;1044039;28;966;-31
2022/03/12 03:34:23;;;;;;;;;;;;;;;;;;1043743;28;878;-25
2022/03/12 03:34:53;;;;;;;;;;;;;;;;;;1044076;28;945;-26
2022/03/12 03:35:24;;;;;;;;;;;;;;;;;;1044107;28;973;-29
2022/03/12 03:35:54;;;;;;;;;;;;;;;;;;1044219;28;933;-32
2022/03/12 03:36:25;;;;;;;;;;;;;;;;;;1044230;28;811;-34
2022/03/12 03:36:55;;;;;;;;;;;;;;;;;;1044170;28;897;-30
2022/03/12 03:37:25;;;;;;;;;;;;;;;;;;1044205;28;949;-28
2022/03/12 03:37:56;;;;;;;;;;;;;;;;;;1044000;28;898;-31
2022/03/12 03:38:27;;;;;;;;;;;;;;;;;;1044275;28;863;-28
2022/03/12 03:38:57;;;;;;;;;;;;;;;;;;1044177;28;878;-26
2022/03/12 03:39:28;;;;;;;;;;;;;;;;;;1044171;28;901;-31
2022/03/12 03:39:58;;;;;;;;;;;;;;;;;;1044225;28;869;-31
2022/03/12 03:40:28;;;;;;;;;;;;;;;;;;1044175;28;949;-30
2022/03/12 03:40:59;;;;;;;;;;;;;;;;;;1044165;28;874;-33
2022/03/12 03:41:29;;;;;;;;;;;;;;;;;;1043608;28;1906;-30
2022/03/12 03:41:59;;;;;;;;;;;;;;;;;;1044041;28;961;-30
2022/03/12 03:42:33;;;;;;;;;;;;;;;;;;1040118;28;843;-29
2022/03/12 03:43:07;;;;;;;;;;;;;;;;;;1040093;28;815;-32
2022/03/12 03:43:37;;;;;;;;;;;;;;;;;;1039999;28;1360;-33
2022/03/12 03:44:09;;;;;;;;;;;;;;;;;;1040032;28;937;-31
2022/03/12 03:44:40;;;;;;;;;;;;;;;;;;1039988;28;795;-33